createdAt,value
2023-02-05T00:00:18.926Z,1.41
2023-02-05T00:02:48.248Z,1.35
2023-02-05T00:05:16.007Z,1.46
2023-02-05T00:07:43.967Z,1.58
2023-02-05T00:10:11.584Z,1.51
2023-02-05T00:12:39.618Z,1.66
2023-02-05T00:15:07.670Z,1.59
2023-02-05T00:17:36.739Z,1.69
2023-02-05T00:20:05.854Z,1.51
2023-02-05T00:22:33.445Z,1.41
2023-02-05T00:25:01.120Z,1.65
2023-02-05T00:27:28.877Z,1.70
2023-02-05T00:29:56.731Z,1.84
2023-02-05T00:32:24.303Z,1.90
2023-02-05T00:34:52.015Z,1.79
2023-02-05T00:37:20.291Z,1.93
2023-02-05T00:39:48.099Z,1.89
2023-02-05T00:42:15.588Z,1.80
2023-02-05T00:44:43.462Z,1.85
2023-02-05T00:47:11.061Z,1.93
2023-02-05T00:49:39.610Z,2.04
2023-02-05T00:52:07.207Z,2.03
2023-02-05T00:54:35.293Z,1.89
2023-02-05T00:57:02.969Z,2.05
2023-02-05T00:59:30.685Z,2.04
2023-02-05T01:01:58.421Z,2.11
2023-02-05T01:04:25.992Z,2.16
2023-02-05T01:06:53.603Z,2.21
2023-02-05T01:09:22.580Z,2.13
2023-02-05T01:11:50.125Z,2.18
2023-02-05T01:14:17.773Z,2.16
2023-02-05T01:16:45.664Z,2.18
2023-02-05T01:19:13.536Z,2.20
2023-02-05T01:21:41.412Z,2.23
2023-02-05T01:24:09.181Z,2.22
2023-02-05T01:26:36.788Z,2.22
2023-02-05T01:29:04.640Z,2.20
2023-02-05T01:31:33.584Z,2.16
2023-02-05T01:34:01.824Z,2.17
2023-02-05T01:36:29.652Z,2.24
2023-02-05T01:38:57.227Z,2.26
2023-02-05T01:41:25.012Z,2.29
2023-02-05T01:44:12.105Z,2.34
2023-02-05T01:46:41.439Z,2.26
2023-02-05T01:49:12.839Z,2.24
2023-02-05T01:51:40.733Z,2.23
2023-02-05T01:54:08.985Z,2.18
2023-02-05T01:56:41.238Z,2.21
2023-02-05T01:59:17.929Z,2.25
2023-02-05T02:01:46.927Z,2.18
2023-02-05T02:04:17.266Z,2.18
2023-02-05T02:06:45.493Z,2.14
2023-02-05T02:09:13.549Z,2.12
2023-02-05T02:11:41.932Z,2.11
2023-02-05T02:14:11.249Z,2.12
2023-02-05T02:16:39.011Z,2.13
2023-02-05T02:19:10.869Z,2.16
2023-02-05T02:22:13.197Z,1.91
2023-02-05T02:24:49.487Z,1.99
2023-02-05T02:27:36.183Z,1.98
2023-02-05T02:30:19.367Z,1.97
2023-02-05T02:33:15.073Z,1.82
2023-02-05T02:35:58.194Z,1.81
2023-02-05T02:38:34.557Z,1.94
2023-02-05T02:41:10.534Z,1.57
2023-02-05T02:43:48.938Z,1.59
2023-02-05T02:46:44.610Z,1.52
2023-02-05T02:49:19.171Z,1.68
2023-02-05T02:51:47.014Z,1.71
2023-02-05T02:54:15.966Z,1.65
2023-02-05T02:56:43.735Z,1.51
2023-02-05T02:59:14.120Z,1.44
2023-02-05T03:01:52.340Z,1.44
2023-02-05T03:04:28.016Z,1.54
2023-02-05T03:06:58.148Z,1.39
2023-02-05T03:09:32.785Z,1.32
2023-02-05T03:12:01.952Z,1.36
2023-02-05T03:14:30.938Z,1.36
2023-02-05T03:17:00.630Z,1.30
2023-02-05T03:19:32.487Z,1.36
2023-02-05T03:22:03.011Z,1.40
2023-02-05T03:24:31.730Z,1.49
2023-02-05T03:26:59.746Z,1.54
2023-02-05T03:29:31.219Z,1.48
2023-02-05T03:32:21.382Z,1.44
2023-02-05T03:35:05.252Z,1.39
2023-02-05T03:37:52.764Z,1.44
2023-02-05T03:40:51.865Z,1.53
2023-02-05T03:43:25.710Z,1.42
2023-02-05T03:46:29.535Z,1.49
2023-02-05T03:49:14.814Z,1.49
2023-02-05T03:52:10.086Z,1.41
2023-02-05T03:54:50.612Z,1.40
2023-02-05T03:57:33.067Z,1.36
2023-02-05T04:00:01.391Z,1.37
2023-02-05T04:02:30.240Z,1.35
2023-02-05T04:04:58.191Z,1.35
2023-02-05T04:07:26.052Z,1.31
2023-02-05T04:09:53.728Z,1.28
2023-02-05T04:12:22.958Z,1.17
2023-02-05T04:14:50.539Z,1.23
2023-02-05T04:17:18.302Z,1.18
2023-02-05T04:19:46.959Z,1.05
2023-02-05T04:22:15.880Z,1.09
2023-02-05T04:24:49.762Z,1.19
2023-02-05T04:27:18.080Z,1.11
2023-02-05T04:29:45.654Z,1.10
2023-02-05T04:32:13.515Z,1.07
2023-02-05T04:34:41.213Z,0.99
2023-02-05T04:37:11.666Z,0.96
2023-02-05T04:39:40.786Z,1.06
2023-02-05T04:42:08.549Z,0.90
2023-02-05T04:44:36.333Z,1.00
2023-02-05T04:47:04.237Z,0.79
2023-02-05T04:49:33.537Z,0.85
2023-02-05T04:52:01.147Z,0.97
2023-02-05T04:54:28.988Z,1.07
2023-02-05T04:56:56.674Z,1.20
2023-02-05T04:59:24.397Z,1.12
2023-02-05T05:01:52.030Z,1.20
2023-02-05T05:04:19.597Z,1.20
2023-02-05T05:06:47.363Z,1.18
2023-02-05T05:09:15.065Z,1.07
2023-02-05T05:11:43.201Z,1.22
2023-02-05T05:14:10.852Z,1.26
2023-02-05T05:16:38.416Z,1.23
2023-02-05T05:19:06.236Z,1.01
2023-02-05T05:21:33.810Z,1.07
2023-02-05T05:24:01.589Z,1.07
2023-02-05T05:26:30.223Z,1.14
2023-02-05T05:28:57.890Z,1.08
2023-02-05T05:31:25.595Z,1.14
2023-02-05T05:33:53.424Z,1.23
2023-02-05T05:36:21.012Z,1.11
2023-02-05T05:38:48.594Z,1.10
2023-02-05T05:41:43.796Z,1.15
2023-02-05T05:44:11.459Z,1.32
2023-02-05T05:46:40.949Z,1.35
2023-02-05T05:49:08.557Z,1.06
2023-02-05T05:51:36.108Z,1.17
2023-02-05T05:54:04.300Z,1.08
2023-02-05T05:56:31.868Z,0.89
2023-02-05T05:58:59.387Z,0.85
2023-02-05T06:01:26.951Z,1.29
2023-02-05T06:03:54.530Z,1.21
2023-02-05T06:06:22.100Z,1.16
2023-02-05T06:08:49.960Z,1.19
2023-02-05T06:11:17.745Z,1.23
2023-02-05T06:13:45.624Z,1.39
2023-02-05T06:16:13.706Z,1.37
2023-02-05T06:18:42.261Z,1.31
2023-02-05T06:21:10.903Z,1.34
2023-02-05T06:23:39.326Z,1.28
2023-02-05T06:26:07.020Z,1.22
2023-02-05T06:28:35.064Z,1.15
2023-02-05T06:31:03.499Z,1.40
2023-02-05T06:33:31.377Z,1.45
2023-02-05T06:35:58.945Z,1.06
2023-02-05T06:38:26.733Z,1.13
2023-02-05T06:40:54.405Z,1.15
2023-02-05T06:43:22.129Z,1.51
2023-02-05T06:45:49.691Z,1.48
2023-02-05T06:48:18.346Z,1.30
2023-02-05T06:50:46.393Z,1.55
2023-02-05T06:53:14.172Z,1.49
2023-02-05T06:55:41.754Z,1.70
2023-02-05T06:58:09.421Z,1.57
2023-02-05T07:00:37.233Z,1.70
2023-02-05T07:03:05.008Z,1.77
2023-02-05T07:05:35.004Z,1.86
2023-02-05T07:08:04.317Z,2.07
2023-02-05T07:10:32.323Z,1.89
2023-02-05T07:12:59.959Z,1.90
2023-02-05T07:15:27.460Z,2.03
2023-02-05T07:17:55.500Z,2.07
2023-02-05T07:20:23.529Z,2.26
2023-02-05T07:22:51.143Z,1.90
2023-02-05T07:25:18.729Z,1.96
2023-02-05T07:27:46.561Z,1.81
2023-02-05T07:30:15.093Z,1.70
2023-02-05T07:32:42.691Z,1.92
2023-02-05T07:35:10.230Z,2.11
2023-02-05T07:37:39.601Z,2.21
2023-02-05T07:40:08.031Z,2.06
2023-02-05T07:42:35.841Z,2.07
2023-02-05T07:45:04.979Z,2.49
2023-02-05T07:47:32.845Z,2.36
2023-02-05T07:50:00.565Z,2.41
2023-02-05T07:52:28.455Z,2.25
2023-02-05T07:54:55.975Z,2.14
2023-02-05T07:57:23.897Z,2.17
2023-02-05T07:59:52.656Z,2.26
2023-02-05T08:02:20.729Z,2.01
2023-02-05T08:04:48.271Z,2.28
2023-02-05T08:07:16.167Z,2.00
2023-02-05T08:09:47.686Z,2.21
2023-02-05T08:12:15.791Z,2.11
2023-02-05T08:14:43.545Z,2.36
2023-02-05T08:17:11.138Z,2.12
2023-02-05T08:19:39.066Z,2.06
2023-02-05T08:22:06.845Z,2.31
2023-02-05T08:24:34.412Z,2.03
2023-02-05T08:27:02.327Z,2.13
2023-02-05T08:29:30.189Z,1.99
2023-02-05T08:31:57.944Z,2.29
2023-02-05T08:34:25.581Z,2.43
2023-02-05T08:36:53.280Z,2.49
2023-02-05T08:39:20.987Z,1.77
2023-02-05T08:41:48.679Z,1.62
2023-02-05T08:44:16.278Z,1.96
2023-02-05T08:46:50.127Z,2.21
2023-02-05T08:49:18.536Z,2.41
2023-02-05T08:51:46.467Z,2.28
2023-02-05T08:54:15.374Z,2.09
2023-02-05T08:56:43.882Z,2.03
2023-02-05T08:59:12.373Z,2.21
2023-02-05T09:01:43.244Z,2.28
2023-02-05T09:04:17.943Z,2.54
2023-02-05T09:06:45.551Z,2.68
2023-02-05T09:09:13.486Z,2.78
2023-02-05T09:11:41.743Z,2.77
2023-02-05T09:14:10.026Z,3.03
2023-02-05T09:16:38.223Z,2.88
2023-02-05T09:19:05.955Z,2.78
2023-02-05T09:21:35.672Z,3.07
2023-02-05T09:24:03.963Z,3.41
2023-02-05T09:26:31.614Z,3.50
2023-02-05T09:28:59.481Z,3.03
2023-02-05T09:31:27.180Z,3.41
2023-02-05T09:33:56.002Z,3.28
2023-02-05T09:36:23.839Z,3.17
2023-02-05T09:39:02.001Z,3.29
2023-02-05T09:41:37.284Z,2.99
2023-02-05T09:44:25.143Z,3.43
2023-02-05T09:46:52.672Z,2.92
2023-02-05T09:49:38.691Z,3.31
2023-02-05T09:52:21.894Z,3.46
2023-02-05T09:54:52.446Z,3.48
2023-02-05T09:57:49.358Z,2.62
2023-02-05T10:00:29.503Z,2.74
2023-02-05T10:02:59.097Z,3.12
2023-02-05T10:05:26.923Z,3.23
2023-02-05T10:08:07.127Z,2.55
2023-02-05T10:10:39.659Z,2.26
2023-02-05T10:13:27.837Z,2.02
2023-02-05T10:16:04.750Z,1.92
2023-02-05T10:19:01.104Z,1.97
2023-02-05T10:21:52.069Z,2.05
2023-02-05T10:24:38.508Z,1.96
2023-02-05T10:27:13.950Z,1.74
2023-02-05T10:29:53.957Z,2.00
2023-02-05T10:32:25.868Z,1.92
2023-02-05T10:35:01.604Z,1.66
2023-02-05T10:37:45.133Z,1.61
2023-02-05T10:40:18.404Z,1.98
2023-02-05T10:43:27.309Z,2.25
2023-02-05T10:45:54.912Z,1.98
2023-02-05T10:48:24.472Z,2.12
2023-02-05T10:51:01.408Z,1.61
2023-02-05T10:53:29.416Z,2.04
2023-02-05T10:55:57.833Z,2.12
2023-02-05T10:58:39.213Z,2.03
2023-02-05T11:01:27.711Z,2.13
2023-02-05T11:04:00.311Z,2.30
2023-02-05T11:06:29.837Z,2.21
2023-02-05T11:08:57.750Z,2.30
2023-02-05T11:11:28.511Z,2.10
2023-02-05T11:14:00.893Z,2.51
2023-02-05T11:16:48.756Z,2.42
2023-02-05T11:19:23.239Z,2.37
2023-02-05T11:21:55.779Z,2.29
2023-02-05T11:24:28.733Z,2.39
2023-02-05T11:27:18.135Z,2.52
2023-02-05T11:29:45.897Z,2.62
2023-02-05T11:32:38.089Z,2.74
2023-02-05T11:35:25.371Z,2.51
2023-02-05T11:38:10.407Z,2.33
2023-02-05T11:40:38.212Z,2.18
2023-02-05T11:43:25.134Z,2.51
2023-02-05T11:45:53.120Z,2.27
2023-02-05T11:48:44.962Z,2.39
2023-02-05T11:51:15.390Z,2.37
2023-02-05T11:53:51.003Z,2.21
2023-02-05T11:56:22.820Z,1.88
2023-02-05T11:59:05.163Z,1.57
2023-02-05T12:01:34.229Z,1.46
2023-02-05T12:04:17.194Z,1.64
2023-02-05T12:06:53.626Z,1.50
2023-02-05T12:09:23.366Z,1.67
2023-02-05T12:12:11.849Z,1.27
2023-02-05T12:15:10.280Z,1.47
2023-02-05T12:17:50.865Z,1.66
2023-02-05T12:20:23.064Z,1.91
2023-02-05T12:23:23.731Z,1.79
2023-02-05T12:25:58.515Z,2.03
2023-02-05T12:28:42.766Z,2.10
2023-02-05T12:31:19.938Z,1.93
2023-02-05T12:34:02.517Z,1.87
2023-02-05T12:36:46.280Z,1.88
2023-02-05T12:39:33.690Z,1.76
2023-02-05T12:42:26.498Z,1.72
2023-02-05T12:44:57.743Z,1.50
2023-02-05T12:47:38.577Z,1.44
2023-02-05T12:50:19.403Z,1.46
2023-02-05T12:53:24.569Z,1.09
2023-02-05T12:56:11.092Z,1.24
2023-02-05T12:59:10.764Z,1.10
2023-02-05T13:02:11.248Z,1.14
2023-02-05T13:04:40.700Z,1.25
2023-02-05T13:07:18.345Z,1.11
2023-02-05T13:09:49.271Z,1.35
2023-02-05T13:12:19.063Z,1.67
2023-02-05T13:15:00.574Z,1.47
2023-02-05T13:17:29.541Z,1.70
2023-02-05T13:19:58.470Z,1.30
2023-02-05T13:22:45.046Z,1.61
2023-02-05T13:25:59.583Z,1.74
2023-02-05T13:28:42.781Z,1.89
2023-02-05T13:31:32.019Z,2.01
2023-02-05T13:34:07.009Z,2.02
2023-02-05T13:36:57.634Z,1.85
2023-02-05T13:39:47.531Z,1.87
2023-02-05T13:42:35.845Z,1.72
2023-02-05T13:45:37.956Z,1.59
2023-02-05T13:48:10.410Z,1.49
2023-02-05T13:50:41.622Z,1.65
2023-02-05T13:53:44.064Z,1.48
2023-02-05T13:56:24.557Z,1.34
2023-02-05T13:58:56.706Z,1.22
2023-02-05T14:01:29.844Z,1.10
2023-02-05T14:04:07.299Z,1.23
2023-02-05T14:06:39.106Z,1.30
2023-02-05T14:09:25.149Z,1.28
2023-02-05T14:11:57.610Z,1.47
2023-02-05T14:14:29.189Z,1.24
2023-02-05T14:16:59.256Z,1.29
2023-02-05T14:19:46.253Z,0.99
2023-02-05T14:22:35.338Z,1.31
2023-02-05T14:25:03.021Z,1.18
2023-02-05T14:27:31.442Z,1.17
2023-02-05T14:29:59.719Z,1.00
2023-02-05T14:32:27.423Z,1.09
2023-02-05T14:35:02.300Z,1.16
2023-02-05T14:37:40.903Z,1.00
2023-02-05T14:40:38.004Z,1.11
2023-02-05T14:43:22.768Z,1.09
2023-02-05T14:45:51.428Z,1.02
2023-02-05T14:48:27.165Z,1.23
2023-02-05T14:51:31.664Z,1.21
2023-02-05T14:54:07.199Z,0.77
2023-02-05T14:56:37.618Z,1.06
2023-02-05T14:59:17.877Z,0.83
2023-02-05T15:01:46.838Z,1.10
2023-02-05T15:04:40.749Z,0.88
2023-02-05T15:07:14.478Z,0.90
2023-02-05T15:09:46.302Z,0.80
2023-02-05T15:12:34.334Z,0.85
2023-02-05T15:15:27.883Z,0.89
2023-02-05T15:17:58.243Z,0.78
2023-02-05T15:20:27.899Z,0.75
2023-02-05T15:23:05.382Z,0.77
2023-02-05T15:25:42.681Z,0.73
2023-02-05T15:28:20.579Z,0.61
2023-02-05T15:31:05.854Z,0.62
2023-02-05T15:33:40.250Z,0.69
2023-02-05T15:36:13.293Z,0.76
2023-02-05T15:39:02.846Z,0.53
2023-02-05T15:41:31.027Z,0.49
2023-02-05T15:44:02.710Z,0.59
2023-02-05T15:46:32.784Z,0.57
2023-02-05T15:49:00.474Z,0.49
2023-02-05T15:51:34.508Z,0.50
2023-02-05T15:54:03.390Z,0.64
2023-02-05T15:56:39.558Z,0.52
2023-02-05T15:59:10.271Z,0.41
2023-02-05T16:01:49.448Z,0.50
2023-02-05T16:04:23.058Z,0.40
2023-02-05T16:06:55.271Z,0.51
2023-02-05T16:09:25.190Z,0.60
2023-02-05T16:11:54.223Z,0.35
2023-02-05T16:14:28.808Z,0.39
2023-02-05T16:17:07.923Z,0.40
2023-02-05T16:19:46.430Z,0.47
2023-02-05T16:22:36.209Z,0.42
2023-02-05T16:25:07.325Z,0.56
2023-02-05T16:27:36.087Z,0.51
2023-02-05T16:30:08.123Z,0.40
2023-02-05T16:32:40.008Z,0.38
2023-02-05T16:35:12.986Z,0.33
2023-02-05T16:37:40.699Z,0.22
2023-02-05T16:40:09.843Z,0.23
2023-02-05T16:42:43.360Z,0.13
2023-02-05T16:45:11.056Z,0.27
2023-02-05T16:47:39.283Z,0.19
2023-02-05T16:50:37.484Z,0.36
2023-02-05T16:53:16.915Z,0.14
2023-02-05T16:55:44.587Z,0.33
2023-02-05T16:58:22.347Z,0.38
2023-02-05T17:01:00.952Z,0.32
2023-02-05T17:03:31.279Z,0.30
2023-02-05T17:06:00.709Z,0.28
2023-02-05T17:08:33.535Z,0.16
2023-02-05T17:11:06.785Z,0.37
2023-02-05T17:13:42.571Z,0.18
2023-02-05T17:16:29.971Z,0.21
2023-02-05T17:19:25.482Z,0.24
2023-02-05T17:22:27.721Z,0.21
2023-02-05T17:24:55.488Z,0.36
2023-02-05T17:27:30.643Z,0.38
2023-02-05T17:29:58.922Z,0.10
2023-02-05T17:32:26.565Z,0.28
2023-02-05T17:34:54.539Z,0.13
2023-02-05T17:37:22.117Z,0.16
2023-02-05T17:39:51.696Z,0.44
2023-02-05T17:42:23.959Z,0.36
2023-02-05T17:44:51.878Z,0.24
2023-02-05T17:47:20.278Z,0.16
2023-02-05T17:49:48.015Z,0.40
2023-02-05T17:52:15.828Z,0.37
2023-02-05T17:54:46.338Z,0.53
2023-02-05T17:57:21.382Z,0.22
2023-02-05T17:59:49.626Z,0.29
2023-02-05T18:02:17.581Z,0.29
2023-02-05T18:04:46.493Z,0.17
2023-02-05T18:07:40.149Z,0.20
2023-02-05T18:10:12.834Z,0.42
2023-02-05T18:12:40.490Z,0.19
2023-02-05T18:15:08.744Z,0.07
2023-02-05T18:17:37.544Z,0.31
2023-02-05T18:20:06.045Z,0.22
2023-02-05T18:22:34.443Z,0.01
2023-02-05T18:25:02.378Z,0.02
2023-02-05T18:27:30.971Z,-0.01
2023-02-05T18:29:58.655Z,0.12
2023-02-05T18:32:26.408Z,0.03
2023-02-05T18:34:54.202Z,-0.04
2023-02-05T18:37:22.419Z,0.02
2023-02-05T18:39:50.960Z,-0.04
2023-02-05T18:42:19.768Z,0.02
2023-02-05T18:44:51.238Z,0.14
2023-02-05T18:47:27.640Z,0.04
2023-02-05T18:49:55.305Z,-0.05
2023-02-05T18:52:26.700Z,0.09
2023-02-05T18:54:54.369Z,-0.14
2023-02-05T18:57:22.327Z,0.21
2023-02-05T18:59:50.319Z,-0.07
2023-02-05T19:02:17.916Z,0.04
2023-02-05T19:04:45.822Z,0.05
2023-02-05T19:07:13.617Z,0.11
2023-02-05T19:09:41.210Z,0.03
2023-02-05T19:12:08.703Z,0.10
2023-02-05T19:14:36.826Z,0.03
2023-02-05T19:17:07.245Z,0.07
2023-02-05T19:19:35.328Z,-0.03
2023-02-05T19:22:05.457Z,0.07
2023-02-05T19:24:33.752Z,0.07
2023-02-05T19:27:01.908Z,-0.09
2023-02-05T19:29:29.947Z,-0.22
2023-02-05T19:31:58.766Z,-0.03
2023-02-05T19:34:27.925Z,0.05
2023-02-05T19:36:58.583Z,-0.20
2023-02-05T19:39:26.394Z,-0.17
2023-02-05T19:41:54.134Z,-0.22
2023-02-05T19:44:22.868Z,-0.15
2023-02-05T19:46:54.185Z,-0.14
2023-02-05T19:49:22.082Z,-0.12
2023-02-05T19:51:55.250Z,-0.06
2023-02-05T19:54:23.021Z,-0.03
2023-02-05T19:56:51.198Z,0.00
2023-02-05T19:59:19.037Z,-0.21
2023-02-05T20:01:46.788Z,0.01
2023-02-05T20:04:17.207Z,-0.09
2023-02-05T20:06:46.389Z,0.02
2023-02-05T20:09:15.662Z,-0.01
2023-02-05T20:11:45.023Z,0.21
2023-02-05T20:14:12.630Z,0.00
2023-02-05T20:16:40.603Z,-0.09
2023-02-05T20:19:10.228Z,-0.08
2023-02-05T20:21:38.713Z,0.03
2023-02-05T20:24:07.575Z,0.15
2023-02-05T20:26:36.060Z,0.08
2023-02-05T20:29:22.868Z,-0.05
2023-02-05T20:31:51.983Z,0.00
2023-02-05T20:34:23.820Z,-0.01
2023-02-05T20:36:53.891Z,0.07
2023-02-05T20:39:22.923Z,0.06
2023-02-05T20:41:51.491Z,-0.01
2023-02-05T20:44:19.238Z,0.04
2023-02-05T20:46:47.071Z,-0.03
2023-02-05T20:49:15.808Z,-0.05
2023-02-05T20:51:43.564Z,0.00
2023-02-05T20:54:11.485Z,-0.09
2023-02-05T20:56:39.402Z,0.13
2023-02-05T20:59:07.730Z,0.20
2023-02-05T21:01:36.404Z,-0.07
2023-02-05T21:04:04.626Z,-0.01
2023-02-05T21:06:34.196Z,-0.11
2023-02-05T21:09:01.986Z,-0.08
2023-02-05T21:11:30.163Z,0.04
2023-02-05T21:13:58.812Z,0.16
2023-02-05T21:16:27.595Z,-0.08
2023-02-05T21:18:55.344Z,-0.13
2023-02-05T21:21:27.737Z,0.08
2023-02-05T21:23:57.084Z,0.16
2023-02-05T21:26:29.440Z,0.16
2023-02-05T21:29:01.626Z,0.22
2023-02-05T21:31:36.157Z,0.28
2023-02-05T21:34:04.654Z,0.15
2023-02-05T21:36:33.550Z,0.05
2023-02-05T21:39:01.179Z,0.16
2023-02-05T21:41:28.942Z,0.09
2023-02-05T21:43:59.112Z,-0.06
2023-02-05T21:46:29.420Z,0.16
2023-02-05T21:48:58.229Z,0.21
2023-02-05T21:51:28.079Z,0.24
2023-02-05T21:53:58.777Z,0.09
2023-02-05T21:56:29.353Z,-0.09
2023-02-05T21:58:57.223Z,-0.18
2023-02-05T22:01:26.810Z,0.15
2023-02-05T22:04:00.709Z,-0.01
2023-02-05T22:06:30.505Z,0.10
2023-02-05T22:08:59.296Z,-0.06
2023-02-05T22:11:27.016Z,-0.09
2023-02-05T22:13:55.116Z,-0.03
2023-02-05T22:16:24.425Z,-0.04
2023-02-05T22:18:53.269Z,0.03
2023-02-05T22:21:23.121Z,0.13
2023-02-05T22:23:52.036Z,0.02
2023-02-05T22:26:24.062Z,0.07
2023-02-05T22:28:52.323Z,0.06
2023-02-05T22:31:20.533Z,-0.16
2023-02-05T22:33:49.307Z,-0.22
2023-02-05T22:36:18.787Z,-0.09
2023-02-05T22:38:46.571Z,-0.28
2023-02-05T22:41:16.809Z,-0.16
2023-02-05T22:43:44.747Z,-0.04
2023-02-05T22:46:14.155Z,0.16
2023-02-05T22:48:43.136Z,0.00
2023-02-05T22:51:14.008Z,-0.19
2023-02-05T22:53:41.897Z,-0.06
2023-02-05T22:56:12.729Z,-0.19
2023-02-05T22:58:41.650Z,-0.23
2023-02-05T23:01:26.025Z,-0.33
2023-02-05T23:03:53.791Z,-0.34
2023-02-05T23:06:23.571Z,-0.34
2023-02-05T23:08:59.156Z,-0.33
2023-02-05T23:11:27.637Z,-0.45
2023-02-05T23:13:56.301Z,-0.33
2023-02-05T23:16:26.118Z,-0.50
2023-02-05T23:18:56.299Z,-0.51
2023-02-05T23:21:24.934Z,-0.49
2023-02-05T23:23:52.994Z,-0.44
2023-02-05T23:26:22.300Z,-0.35
2023-02-05T23:28:49.951Z,-0.38
2023-02-05T23:31:17.829Z,-0.51
2023-02-05T23:33:45.474Z,-0.63
2023-02-05T23:36:13.247Z,-0.53
2023-02-05T23:38:40.904Z,-0.44
2023-02-05T23:41:08.672Z,-0.35
2023-02-05T23:43:36.922Z,-0.40
2023-02-05T23:46:05.367Z,-0.47
2023-02-05T23:48:33.381Z,-0.55
2023-02-05T23:51:01.071Z,-0.28
2023-02-05T23:53:28.654Z,-0.47
2023-02-05T23:55:56.346Z,-0.40
2023-02-05T23:58:26.147Z,-0.47
